Cimbria — V2CC7 — position and weather

sailwx.info

Track history (hours):
 
Tides and Currents Weather Stations Pressure Air Temp Water Temp Dewpoint Dewpoint Depression Visibility Wind Speed Wind Dir Waves Ship Positions

Cimbria

Last reported at 2015-Jan-10 00:18 UTC. Time now 2015-Jul-02 12:30 UTC.
Position N 35°54' E 032°51'.
Warning: this ship's position is months out of date.

Length 109 m; draft 4.1 m.

Type: Cargo ship. MMSI: 304981000.

Date/timePositionNaut miles runAvg speedWind from/ knotsBaromVisibWave heightAir tempDewpointWater temp
2015-Jan-10 00:18N 35°54' E 032°51'20111.3
2015-Jan-09 06:30N 35°48' E 028°43'92 9.8
2015-Jan-08 21:09N 36°23' E 026°58'53 4.6
2015-Jan-08 09:33N 37°10' E 026°26'1111.4
2015-Jan-08 08:33N 37°17' E 026°15'1111.3
2015-Jan-08 07:33N 37°23' E 026°03'1111.1
2015-Jan-08 06:33N 37°30' E 025°52'  
2015-Jan-03 06:28N 37°48' E 025°51'1210.8
2015-Jan-03 05:23N 37°36' E 025°51'8 9.7
2015-Jan-03 04:33N 37°28' E 025°54'1110.9
2015-Jan-03 03:33N 37°22' E 026°05'1211.1
2015-Jan-03 02:28N 37°15' E 026°18'1010.9
2015-Jan-03 01:33N 37°09' E 026°27'6510.8
2015-Jan-02 19:31N 36°13' E 027°10'277 6.7
2015-Jan-01 02:30N 34°30' E 032°25'1010.3
2015-Jan-01 01:32N 34°27' E 032°36'1010.4
2015-Jan-01 00:33N 34°24' E 032°48'1010.1
2014-Dec-31 23:33N 34°21' E 032°59'1010.0
2014-Dec-31 22:31N 34°19' E 033°12'1010.2
2014-Dec-31 21:31N 34°17' E 033°24'1311.1
2014-Dec-31 20:22N 34°14' E 033°39'  
Track history (hours):
 
Tides and Currents Weather Stations Pressure Air Temp Water Temp Dewpoint Dewpoint Depression Visibility Wind Speed Wind Dir Waves Ship Positions

Cimbria

Last reported at 2015-Jan-10 00:18 UTC. Time now 2015-Jul-02 12:30 UTC.
Position N 35°54' E 032°51'.
Warning: this ship's position is months out of date.

Length 109 m; draft 4.1 m.

Type: Cargo ship. MMSI: 304981000.

Date/timePositionNaut miles runAvg speedWind from/ knotsBaromVisibWave heightAir tempDewpointWater temp
2015-Jan-10 00:18N 35°54' E 032°51'20111.3
2015-Jan-09 06:30N 35°48' E 028°43'92 9.8
2015-Jan-08 21:09N 36°23' E 026°58'53 4.6
2015-Jan-08 09:33N 37°10' E 026°26'1111.4
2015-Jan-08 08:33N 37°17' E 026°15'1111.3
2015-Jan-08 07:33N 37°23' E 026°03'1111.1
2015-Jan-08 06:33N 37°30' E 025°52'  
2015-Jan-03 06:28N 37°48' E 025°51'1210.8
2015-Jan-03 05:23N 37°36' E 025°51'8 9.7
2015-Jan-03 04:33N 37°28' E 025°54'1110.9
2015-Jan-03 03:33N 37°22' E 026°05'1211.1
2015-Jan-03 02:28N 37°15' E 026°18'1010.9
2015-Jan-03 01:33N 37°09' E 026°27'6510.8
2015-Jan-02 19:31N 36°13' E 027°10'277 6.7
2015-Jan-01 02:30N 34°30' E 032°25'1010.3
2015-Jan-01 01:32N 34°27' E 032°36'1010.4
2015-Jan-01 00:33N 34°24' E 032°48'1010.1
2014-Dec-31 23:33N 34°21' E 032°59'1010.0
2014-Dec-31 22:31N 34°19' E 033°12'1010.2
2014-Dec-31 21:31N 34°17' E 033°24'1311.1
2014-Dec-31 20:22N 34°14' E 033°39'  

Dump ship's entire track history